Time;durP1;ratioP1;P1;durP2;ratioP2;P2;SDS_P1;SDS_P2;PMS_P1;PMS_P2;Temp;Humidity;BMP_temperature;BMP_pressure;BME280_temperature;BME280_humidity;BME280_pressure;Samples;Min_cycle;Max_cycle;Signal;HPM_P1;HPM_P2
2023/02/11 00:02:04;;;;;;;4.32;2.38;;;10.80;68.90;;;;;;4938740;29;20032;-80
2023/02/11 00:04:30;;;;;;;4.28;1.90;;;10.80;68.90;;;;;;4932898;29;20059;-81
2023/02/11 00:06:56;;;;;;;3.58;2.00;;;10.80;68.90;;;;;;4933745;29;20039;-81
2023/02/11 00:09:22;;;;;;;4.18;2.13;;;10.80;69.00;;;;;;4925577;29;20087;-80
2023/02/11 00:11:48;;;;;;;5.53;2.30;;;10.80;69.00;;;;;;4937203;29;20175;-81
2023/02/11 00:14:14;;;;;;;4.30;3.08;;;10.80;69.00;;;;;;4940843;29;20777;-81
2023/02/11 00:16:40;;;;;;;3.72;1.48;;;10.80;69.00;;;;;;4921451;29;20115;-81
2023/02/11 00:19:06;;;;;;;4.75;1.92;;;10.80;69.10;;;;;;4934409;29;20070;-81
2023/02/11 00:21:33;;;;;;;5.65;2.60;;;10.80;69.10;;;;;;4941422;29;20164;-82
2023/02/11 00:24:01;;;;;;;6.20;1.65;;;10.80;69.10;;;;;;4935212;29;20079;-81
2023/02/11 00:26:30;;;;;;;4.40;1.80;;;10.80;69.20;;;;;;4935991;29;20039;-84
2023/02/11 00:28:57;;;;;;;3.60;1.90;;;10.80;69.20;;;;;;4938997;29;20048;-82
2023/02/11 00:31:24;;;;;;;5.13;2.20;;;10.80;69.20;;;;;;4939513;29;20074;-81
2023/02/11 00:33:50;;;;;;;3.60;1.80;;;10.80;69.30;;;;;;4940745;29;20036;-81
2023/02/11 00:36:19;;;;;;;4.80;2.08;;;10.70;69.10;;;;;;4933407;29;20548;-81
2023/02/11 00:38:47;;;;;;;5.05;1.80;;;10.80;69.30;;;;;;4927176;29;20044;-81
2023/02/11 00:41:14;;;;;;;3.60;1.70;;;10.70;69.20;;;;;;4939910;29;20100;-81
2023/02/11 00:43:40;;;;;;;4.70;1.75;;;10.70;69.20;;;;;;4937814;29;20074;-81
2023/02/11 00:46:06;;;;;;;2.88;1.80;;;10.70;69.20;;;;;;4941170;29;20031;-81
2023/02/11 00:48:32;;;;;;;4.18;1.75;;;10.70;69.20;;;;;;4942047;29;20175;-82
2023/02/11 00:51:00;;;;;;;6.82;2.03;;;10.70;69.30;;;;;;4937175;29;20047;-81
2023/02/11 00:53:26;;;;;;;6.57;1.90;;;10.70;69.30;;;;;;4939807;29;20039;-82
2023/02/11 00:55:52;;;;;;;3.58;1.70;;;10.70;69.30;;;;;;4942216;29;20035;-81
2023/02/11 00:58:18;;;;;;;6.15;2.10;;;10.70;69.40;;;;;;4938018;29;20032;-81
2023/02/11 01:00:44;;;;;;;3.33;1.55;;;10.70;69.40;;;;;;4939910;29;20118;-82
2023/02/11 01:03:12;;;;;;;5.00;1.92;;;10.80;69.60;;;;;;4939077;29;20048;-82
2023/02/11 01:05:38;;;;;;;4.53;1.85;;;10.70;69.40;;;;;;4934791;29;20038;-82
2023/02/11 01:08:04;;;;;;;5.25;1.50;;;10.70;69.50;;;;;;4937601;29;20048;-83
2023/02/11 01:10:30;;;;;;;3.67;1.77;;;10.70;69.50;;;;;;4923378;29;20027;-83
2023/02/11 01:12:56;;;;;;;3.70;1.45;;;10.70;69.50;;;;;;4923685;29;20032;-84
2023/02/11 01:15:23;;;;;;;8.13;2.15;;;10.80;69.70;;;;;;4940266;29;20114;-83
2023/02/11 01:17:49;;;;;;;4.22;1.67;;;10.80;69.70;;;;;;4938088;29;20036;-82
2023/02/11 01:20:21;;;;;;;6.47;1.30;;;10.80;69.70;;;;;;4938547;29;20043;-83
2023/02/11 01:22:47;;;;;;;3.53;1.55;;;10.80;69.80;;;;;;4938881;29;20558;-84
2023/02/11 01:25:14;;;;;;;6.38;1.55;;;10.80;69.80;;;;;;4938620;28;20476;-83
2023/02/11 01:27:41;;;;;;;4.03;1.50;;;10.80;69.80;;;;;;4940227;29;20036;-83
2023/02/11 01:30:11;;;;;;;4.65;1.33;;;10.80;69.80;;;;;;4936030;29;20056;-82
2023/02/11 01:32:36;;;;;;;4.88;1.50;;;10.80;69.80;;;;;;4933702;29;20036;-83
2023/02/11 01:35:03;;;;;;;5.00;1.25;;;10.80;70.30;;;;;;4922520;29;20680;-82
2023/02/11 01:37:31;;;;;;;5.78;1.77;;;10.80;69.80;;;;;;4930160;29;20031;-81
2023/02/11 01:39:57;;;;;;;6.13;2.22;;;10.80;69.80;;;;;;4922391;29;20032;-84
2023/02/11 01:42:23;;;;;;;5.65;2.08;;;10.80;69.80;;;;;;4937155;29;20035;-85
2023/02/11 01:44:52;;;;;;;5.30;1.73;;;10.80;69.80;;;;;;4939206;29;20036;-84
2023/02/11 01:47:20;;;;;;;4.30;1.38;;;10.80;69.80;;;;;;4938779;29;20028;-84
2023/02/11 01:49:52;;;;;;;3.92;1.52;;;10.80;69.80;;;;;;4939050;29;20044;-84
2023/02/11 01:52:37;;;;;;;6.57;1.60;;;10.80;69.80;;;;;;4939164;29;20035;-84
2023/02/11 01:58:01;;;;;;;2.75;0.90;;;10.80;69.80;;;;;;4939071;29;20099;-86
2023/02/11 02:00:35;;;;;;;6.17;1.87;;;10.80;69.80;;;;;;4921644;29;20039;-85
2023/02/11 02:03:13;;;;;;;4.45;1.30;;;10.80;69.90;;;;;;4930874;29;20294;-86
2023/02/11 02:05:51;;;;;;;4.07;1.77;;;10.80;69.90;;;;;;4932683;29;20490;-85
2023/02/11 02:08:22;;;;;;;4.13;1.40;;;10.80;69.90;;;;;;4938967;29;20070;-85
2023/02/11 02:10:53;;;;;;;4.88;1.83;;;10.80;69.90;;;;;;4937872;29;20112;-83
2023/02/11 02:13:19;;;;;;;2.92;1.50;;;10.80;70.00;;;;;;4921680;29;20035;-84
2023/02/11 02:16:03;;;;;;;5.32;1.38;;;10.80;70.00;;;;;;4932597;29;20039;-84
2023/02/11 02:18:59;;;;;;;5.50;1.52;;;10.80;70.00;;;;;;4949619;28;20448;-84
2023/02/11 02:21:37;;;;;;;2.70;1.35;;;10.80;70.10;;;;;;4936456;29;20036;-84
2023/02/11 02:24:15;;;;;;;4.15;1.85;;;10.80;70.10;;;;;;4937855;29;20062;-85
2023/02/11 02:26:59;;;;;;;7.95;1.67;;;10.80;70.10;;;;;;4936122;29;20499;-85
2023/02/11 02:30:03;;;;;;;6.35;1.48;;;10.80;70.10;;;;;;4933850;29;20063;-81
2023/02/11 02:32:42;;;;;;;;;;;10.80;70.10;;;;;;4934692;29;20082;-82
2023/02/11 02:35:18;;;;;;;4.40;1.38;;;10.80;70.10;;;;;;4929801;29;20095;-81
2023/02/11 02:38:00;;;;;;;4.45;1.38;;;10.70;69.70;;;;;;4929374;29;20036;-78
2023/02/11 02:40:39;;;;;;;3.20;1.60;;;10.70;69.80;;;;;;4932612;29;20032;-79
2023/02/11 02:43:07;;;;;;;3.67;1.45;;;10.80;70.00;;;;;;4933033;29;20109;-79
2023/02/11 02:45:33;;;;;;;3.90;1.35;;;10.70;69.80;;;;;;4934435;29;20147;-79
2023/02/11 02:47:59;;;;;;;6.85;1.63;;;10.70;69.90;;;;;;4932440;29;20034;-79
2023/02/11 02:50:33;;;;;;;5.45;2.00;;;10.80;70.10;;;;;;4938361;29;20040;-80
2023/02/11 02:53:30;;;;;;;4.90;1.20;;;10.70;69.90;;;;;;4943424;29;20047;-81
2023/02/11 02:56:08;;;;;;;5.07;1.38;;;10.70;70.00;;;;;;4938397;29;20599;-81
2023/02/11 02:58:40;;;;;;;4.22;1.60;;;10.70;69.90;;;;;;4940861;29;20036;-80
2023/02/11 03:01:35;;;;;;;7.13;1.80;;;10.70;70.00;;;;;;4940473;29;20036;-80
2023/02/11 03:04:22;;;;;;;4.45;1.60;;;10.70;70.00;;;;;;4917455;29;20048;-79
2023/02/11 03:06:53;;;;;;;3.97;1.27;;;10.70;70.00;;;;;;4943107;29;20159;-85
2023/02/11 03:09:48;;;;;;;3.67;1.50;;;10.70;70.00;;;;;;4936106;29;20051;-83
2023/02/11 03:12:15;;;;;;;8.07;1.60;;;10.70;70.10;;;;;;4944409;29;20062;-83
2023/02/11 03:14:42;;;;;;;5.30;1.70;;;10.70;70.10;;;;;;4937905;29;20031;-82
2023/02/11 03:17:09;;;;;;;5.00;1.60;;;10.70;70.10;;;;;;4927943;29;20101;-81
2023/02/11 03:19:44;;;;;;;7.07;1.73;;;10.70;70.10;;;;;;4926837;29;20511;-82
2023/02/11 03:22:20;;;;;;;6.47;1.88;;;10.70;70.20;;;;;;4930370;29;20650;-82
2023/02/11 03:24:47;;;;;;;3.33;1.52;;;10.70;70.20;;;;;;4925023;29;20044;-81
2023/02/11 03:27:19;;;;;;;5.85;1.77;;;10.70;70.10;;;;;;4928721;29;20520;-81
2023/02/11 03:29:45;;;;;;;4.50;2.03;;;10.70;70.20;;;;;;4913071;29;20056;-83
2023/02/11 03:32:35;;;;;;;4.68;1.60;;;10.70;70.20;;;;;;4926664;29;20027;-82
2023/02/11 03:35:23;;;;;;;5.88;3.05;;;10.70;70.30;;;;;;4929677;29;20036;-79
2023/02/11 03:38:03;;;;;;;5.35;1.63;;;10.70;70.20;;;;;;4925326;29;20087;-82
2023/02/11 03:40:33;;;;;;;6.18;1.45;;;10.70;70.20;;;;;;4927392;29;20043;-81
2023/02/11 03:43:05;;;;;;;8.43;1.67;;;10.70;70.20;;;;;;4931470;29;20192;-83
2023/02/11 03:45:32;;;;;;;8.43;1.87;;;10.70;70.20;;;;;;4927339;29;20031;-82
2023/02/11 03:48:13;;;;;;;5.25;1.42;;;10.70;70.20;;;;;;4929478;29;20043;-84
2023/02/11 03:50:40;;;;;;;7.22;2.80;;;10.70;70.30;;;;;;4931962;29;20028;-83
2023/02/11 03:53:07;;;;;;;3.38;1.58;;;10.70;70.80;;;;;;4928754;29;20193;-83
2023/02/11 03:55:37;;;;;;;6.60;2.13;;;10.70;70.30;;;;;;4919098;29;20036;-84
2023/02/11 03:58:03;;;;;;;6.60;1.98;;;10.70;70.30;;;;;;4929770;29;20283;-82
2023/02/11 04:00:32;;;;;;;4.03;1.90;;;10.70;70.30;;;;;;4930127;29;20038;-84
2023/02/11 04:02:58;;;;;;;4.93;1.88;;;10.70;70.40;;;;;;4921671;29;20063;-82
2023/02/11 04:05:24;;;;;;;6.20;2.13;;;10.70;70.40;;;;;;4929155;29;20036;-83
2023/02/11 04:07:49;;;;;;;5.32;2.08;;;10.70;70.40;;;;;;4925777;29;20035;-83
2023/02/11 04:10:15;;;;;;;7.80;2.72;;;10.70;70.50;;;;;;4927676;29;20039;-82
2023/02/11 04:12:41;;;;;;;7.10;2.50;;;10.70;70.50;;;;;;4924000;29;20048;-81
2023/02/11 04:15:08;;;;;;;6.57;2.22;;;10.70;70.50;;;;;;4929005;29;20068;-81
2023/02/11 04:17:34;;;;;;;4.45;2.05;;;10.70;70.50;;;;;;4928907;29;20630;-82
2023/02/11 04:20:00;;;;;;;7.05;2.35;;;10.70;70.50;;;;;;4928456;29;20040;-82
2023/02/11 04:22:26;;;;;;;6.03;1.92;;;10.70;70.50;;;;;;4926739;29;20034;-82
2023/02/11 04:24:52;;;;;;;7.75;2.78;;;10.70;70.60;;;;;;4928466;29;20051;-85
2023/02/11 04:27:18;;;;;;;5.75;2.15;;;10.70;70.60;;;;;;4929089;29;20063;-85
2023/02/11 04:29:43;;;;;;;7.18;2.55;;;10.70;70.60;;;;;;4927382;29;20170;-86
2023/02/11 04:32:10;;;;;;;11.93;3.22;;;10.70;70.60;;;;;;4912187;29;20075;-83
2023/02/11 04:34:36;;;;;;;7.70;2.35;;;10.70;70.60;;;;;;4929075;29;20047;-82
2023/02/11 04:37:04;;;;;;;5.68;2.20;;;10.70;70.60;;;;;;4926406;29;20052;-81
2023/02/11 04:39:30;;;;;;;4.45;2.35;;;10.70;70.70;;;;;;4925757;29;20042;-83
2023/02/11 04:41:56;;;;;;;7.05;2.97;;;10.70;70.70;;;;;;4920685;29;20040;-83
2023/02/11 04:44:22;;;;;;;2.67;2.17;;;10.60;70.50;;;;;;4929044;29;20056;-83
2023/02/11 04:46:48;;;;;;;4.03;2.47;;;10.60;70.50;;;;;;4928777;29;20107;-81
2023/02/11 04:49:15;;;;;;;10.25;3.05;;;10.60;70.50;;;;;;4925806;29;20076;-81
2023/02/11 04:51:41;;;;;;;10.00;3.33;;;10.60;70.60;;;;;;4929210;29;20028;-80
2023/02/11 04:54:07;;;;;;;7.85;3.80;;;10.60;70.60;;;;;;4926884;29;20039;-81
2023/02/11 04:56:33;;;;;;;8.52;3.15;;;10.60;70.60;;;;;;4928856;29;20040;-82
2023/02/11 04:58:59;;;;;;;5.75;2.72;;;10.60;70.70;;;;;;4932457;29;20090;-82
2023/02/11 05:01:25;;;;;;;7.35;3.22;;;10.60;70.70;;;;;;4932092;29;20239;-82
2023/02/11 05:03:51;;;;;;;5.07;3.10;;;10.60;70.70;;;;;;4928385;29;20048;-77
2023/02/11 05:06:17;;;;;;;6.32;3.15;;;10.60;70.70;;;;;;4928765;29;20027;-77
2023/02/11 05:08:43;;;;;;;5.88;2.30;;;10.60;70.70;;;;;;4932243;29;21523;-77
2023/02/11 05:11:18;;;;;;;5.95;3.45;;;10.70;70.90;;;;;;4931011;29;20114;-79
2023/02/11 05:13:45;;;;;;;7.53;2.80;;;10.60;70.70;;;;;;4927947;29;20122;-77
2023/02/11 05:16:12;;;;;;;7.18;3.03;;;10.60;70.70;;;;;;4931405;29;20028;-78
2023/02/11 05:18:40;;;;;;;8.13;3.38;;;10.60;70.70;;;;;;4930709;29;20121;-78
2023/02/11 05:21:08;;;;;;;8.00;3.40;;;10.60;70.70;;;;;;4929929;29;20680;-77
2023/02/11 05:23:35;;;;;;;6.78;2.40;;;10.70;70.90;;;;;;4931146;29;20068;-78
2023/02/11 05:26:02;;;;;;;5.72;2.75;;;10.60;70.80;;;;;;4931718;29;20039;-77
2023/02/11 05:28:28;;;;;;;4.95;2.78;;;10.60;70.80;;;;;;4929380;29;20538;-76
2023/02/11 05:30:55;;;;;;;7.15;2.38;;;10.60;70.80;;;;;;4932307;29;20043;-78
2023/02/11 05:33:21;;;;;;;5.70;2.50;;;10.70;71.00;;;;;;4914751;29;20042;-76
2023/02/11 05:35:47;;;;;;;7.93;2.58;;;10.60;70.80;;;;;;4914693;29;20044;-78
2023/02/11 05:38:13;;;;;;;7.82;3.17;;;10.60;70.80;;;;;;4929835;29;20436;-79
2023/02/11 05:40:39;;;;;;;4.75;3.03;;;10.60;70.80;;;;;;4929526;29;20046;-81
2023/02/11 05:43:06;;;;;;;5.07;2.47;;;10.60;70.80;;;;;;4932049;29;20822;-86
2023/02/11 05:45:32;;;;;;;8.73;2.50;;;10.60;70.90;;;;;;4929880;29;20253;-83
2023/02/11 05:47:58;;;;;;;6.97;2.88;;;10.60;70.90;;;;;;4926653;29;20044;-85
2023/02/11 05:50:24;;;;;;;7.78;3.20;;;10.60;71.00;;;;;;4921056;29;20032;-79
2023/02/11 05:52:51;;;;;;;9.50;3.13;;;10.60;70.90;;;;;;4926586;29;20047;-82
2023/02/11 05:55:17;;;;;;;6.25;2.20;;;10.60;70.90;;;;;;4925929;29;20051;-83
2023/02/11 05:57:43;;;;;;;5.72;2.22;;;10.60;71.00;;;;;;4928336;29;20094;-83
2023/02/11 06:00:10;;;;;;;4.53;2.22;;;10.60;71.00;;;;;;4927639;29;20040;-84
2023/02/11 06:02:39;;;;;;;5.22;2.38;;;10.70;71.20;;;;;;4927960;29;20082;-84
2023/02/11 06:05:05;;;;;;;10.60;2.58;;;10.60;71.00;;;;;;4926395;29;20200;-90
2023/02/11 06:07:31;;;;;;;5.90;2.45;;;10.60;70.90;;;;;;4922087;29;20047;-93
2023/02/11 06:09:58;;;;;;;5.47;2.50;;;10.60;70.90;;;;;;4923728;29;20040;-83
2023/02/11 06:12:24;;;;;;;5.85;2.40;;;10.60;70.90;;;;;;4924949;29;20027;-84
2023/02/11 06:14:50;;;;;;;5.25;2.55;;;10.60;71.00;;;;;;4924956;29;20626;-84
2023/02/11 06:17:16;;;;;;;9.32;2.60;;;10.60;70.90;;;;;;4924032;29;20039;-85
2023/02/11 06:19:42;;;;;;;7.07;2.38;;;10.60;70.90;;;;;;4933016;29;20383;-90
2023/02/11 06:22:07;;;;;;;8.48;2.50;;;10.60;71.00;;;;;;4930505;29;20067;-92
2023/02/11 06:24:33;;;;;;;7.03;2.75;;;10.60;71.00;;;;;;4926411;29;20302;-89
2023/02/11 06:26:59;;;;;;;6.93;2.90;;;10.60;71.00;;;;;;4923683;29;20032;-87
2023/02/11 06:29:25;;;;;;;6.88;3.63;;;10.60;71.00;;;;;;4927277;28;20059;-92
2023/02/11 06:31:51;;;;;;;5.90;2.45;;;10.60;71.00;;;;;;4927514;29;20126;-86
2023/02/11 06:34:17;;;;;;;9.15;3.15;;;10.60;71.00;;;;;;4925914;29;20525;-83
2023/02/11 06:36:44;;;;;;;6.85;2.65;;;10.60;71.00;;;;;;4921915;29;20034;-82
2023/02/11 06:39:12;;;;;;;10.38;2.53;;;10.60;71.10;;;;;;4921751;29;20419;-83
2023/02/11 06:41:38;;;;;;;7.00;3.28;;;10.50;70.90;;;;;;4926037;29;20035;-82
2023/02/11 06:44:04;;;;;;;7.43;3.20;;;10.60;71.20;;;;;;4922990;29;20543;-82
2023/02/11 06:46:30;;;;;;;5.72;3.08;;;10.50;70.90;;;;;;4924094;29;20040;-84
2023/02/11 06:48:56;;;;;;;5.88;3.03;;;10.50;70.90;;;;;;4924148;29;20279;-82
2023/02/11 06:51:22;;;;;;;5.53;2.95;;;10.60;71.20;;;;;;4923997;29;20346;-81
2023/02/11 06:53:48;;;;;;;9.10;3.67;;;10.50;71.00;;;;;;4923713;29;20036;-82
2023/02/11 06:56:20;;;;;;;6.13;3.25;;;10.60;71.20;;;;;;4920874;29;20094;-79
2023/02/11 06:58:47;;;;;;;9.15;3.78;;;10.50;71.00;;;;;;4920553;29;20515;-79
2023/02/11 07:01:15;;;;;;;10.02;3.47;;;10.60;71.20;;;;;;4923754;29;20110;-81
2023/02/11 07:03:43;;;;;;;9.52;4.00;;;10.50;71.00;;;;;;4920115;29;20350;-82
2023/02/11 07:06:12;;;;;;;5.65;3.25;;;10.60;71.20;;;;;;4921084;29;20039;-81
2023/02/11 07:08:41;;;;;;;6.95;3.50;;;10.50;71.00;;;;;;4917042;29;20039;-81
2023/02/11 07:11:19;;;;;;;6.82;4.35;;;10.50;71.00;;;;;;4921706;29;20513;-81
2023/02/11 07:13:46;;;;;;;5.22;2.50;;;10.50;71.00;;;;;;4924049;29;20043;-80
2023/02/11 07:16:15;;;;;;;6.68;3.83;;;10.50;71.10;;;;;;4914897;29;20608;-80
2023/02/11 07:18:41;;;;;;;5.20;3.33;;;10.50;71.30;;;;;;4921408;29;20047;-79
2023/02/11 07:21:10;;;;;;;11.32;4.68;;;10.60;71.50;;;;;;4925931;29;20043;-86
2023/02/11 07:23:37;;;;;;;8.45;4.10;;;10.60;71.60;;;;;;4905709;29;20055;-80
2023/02/11 07:26:08;;;;;;;7.75;4.03;;;10.60;71.50;;;;;;4922295;29;20103;-81
2023/02/11 07:28:36;;;;;;;9.30;4.22;;;10.60;71.50;;;;;;4923505;29;20085;-80
2023/02/11 07:31:13;;;;;;;12.35;4.47;;;10.60;71.50;;;;;;4923721;29;20043;-81
2023/02/11 07:33:39;;;;;;;7.57;3.95;;;10.60;71.70;;;;;;4925935;29;20156;-80
2023/02/11 07:36:07;;;;;;;11.88;4.22;;;10.60;71.80;;;;;;4920019;29;20058;-81
2023/02/11 07:38:34;;;;;;;8.73;4.25;;;10.60;71.80;;;;;;4921944;29;20047;-82
2023/02/11 07:41:00;;;;;;;8.70;4.45;;;10.70;72.00;;;;;;4921320;29;20512;-80
2023/02/11 07:43:27;;;;;;;7.43;5.10;;;10.70;72.00;;;;;;4922871;29;20043;-81
2023/02/11 07:45:53;;;;;;;10.45;4.50;;;10.70;72.00;;;;;;4923934;29;20113;-79
2023/02/11 07:48:19;;;;;;;9.20;4.65;;;10.80;72.20;;;;;;4923017;29;20455;-89
2023/02/11 07:50:45;;;;;;;12.40;4.80;;;10.80;72.20;;;;;;4921432;29;20562;-86
2023/02/11 07:53:11;;;;;;;8.30;4.47;;;10.80;72.40;;;;;;4923564;29;20031;-81
2023/02/11 07:55:37;;;;;;;10.82;5.78;;;10.90;72.70;;;;;;4919415;29;20039;-83
2023/02/11 07:58:03;;;;;;;10.20;5.18;;;11.00;73.00;;;;;;4923315;29;20295;-80
2023/02/11 08:00:29;;;;;;;8.13;4.97;;;11.10;73.20;;;;;;4923167;29;20134;-80
2023/02/11 08:02:58;;;;;;;14.00;4.80;;;11.20;73.20;;;;;;4923241;29;20051;-81
2023/02/11 08:05:24;;;;;;;10.45;4.88;;;11.30;73.10;;;;;;4920965;29;20023;-81
2023/02/11 08:07:52;;;;;;;9.20;5.10;;;11.40;73.10;;;;;;4921408;29;20047;-82
2023/02/11 08:10:18;;;;;;;11.50;6.15;;;11.30;72.90;;;;;;4919010;29;20192;-81
2023/02/11 08:12:44;;;;;;;9.15;4.85;;;11.30;72.80;;;;;;4921909;29;20040;-79
2023/02/11 08:15:10;;;;;;;6.70;4.80;;;11.40;73.00;;;;;;4923415;29;20103;-79
2023/02/11 08:17:36;;;;;;;8.30;5.00;;;11.30;72.90;;;;;;4923280;29;20047;-78
2023/02/11 08:20:04;;;;;;;10.85;5.03;;;11.30;73.00;;;;;;4909708;29;20082;-78
2023/02/11 08:22:34;;;;;;;11.40;6.15;;;11.40;73.40;;;;;;4921705;29;20095;-79
2023/02/11 08:25:00;;;;;;;10.95;5.78;;;11.50;74.20;;;;;;4921189;29;20050;-82
2023/02/11 08:27:26;;;;;;;10.68;5.32;;;11.60;73.90;;;;;;4922649;29;20050;-80
2023/02/11 08:29:53;;;;;;;7.18;4.43;;;11.70;74.00;;;;;;4922326;29;20763;-84
2023/02/11 08:32:19;;;;;;;8.95;4.65;;;11.90;74.20;;;;;;4905801;29;20048;-83
2023/02/11 08:34:45;;;;;;;11.77;5.75;;;12.00;74.20;;;;;;4921289;29;20024;-80
2023/02/11 08:37:11;;;;;;;6.95;3.70;;;12.20;74.30;;;;;;4921347;29;20665;-79
2023/02/11 08:39:37;;;;;;;8.57;3.70;;;12.40;74.30;;;;;;4926360;29;20038;-76
2023/02/11 08:42:06;;;;;;;6.53;4.25;;;12.60;74.40;;;;;;4922913;29;20485;-81
2023/02/11 08:44:32;;;;;;;5.88;3.22;;;12.70;74.20;;;;;;4936557;29;20094;-83
2023/02/11 08:46:58;;;;;;;7.90;3.67;;;12.90;74.30;;;;;;4935021;29;20111;-82
2023/02/11 08:49:23;;;;;;;7.70;4.68;;;13.00;74.10;;;;;;4933127;29;20039;-80
2023/02/11 08:51:50;;;;;;;11.52;4.32;;;13.20;74.10;;;;;;4930349;29;20041;-83
2023/02/11 08:54:16;;;;;;;11.30;4.68;;;13.20;73.80;;;;;;4932128;29;20149;-83
2023/02/11 08:56:42;;;;;;;7.82;4.38;;;13.30;73.70;;;;;;4929578;29;20039;-80
2023/02/11 08:59:13;;;;;;;12.07;5.32;;;13.30;73.70;;;;;;4927674;29;20126;-81
2023/02/11 09:01:39;;;;;;;12.73;5.75;;;13.40;73.80;;;;;;4934950;29;20028;-84
2023/02/11 09:04:05;;;;;;;9.35;5.30;;;13.40;73.60;;;;;;4937234;29;20095;-84
2023/02/11 09:06:31;;;;;;;13.15;6.30;;;13.40;73.60;;;;;;4925541;29;20563;-80
2023/02/11 09:08:57;;;;;;;8.65;4.95;;;13.40;73.50;;;;;;4922449;29;20745;-77
2023/02/11 09:11:29;;;;;;;8.98;5.07;;;13.40;73.50;;;;;;4926632;29;20067;-78
2023/02/11 09:13:55;;;;;;;12.43;4.80;;;13.50;73.80;;;;;;4919626;29;20117;-79
2023/02/11 09:16:27;;;;;;;12.02;5.50;;;13.60;73.90;;;;;;4917996;29;20547;-78
2023/02/11 09:18:55;;;;;;;5.22;4.07;;;13.70;73.80;;;;;;4919127;29;20047;-86
2023/02/11 09:21:20;;;;;;;10.02;5.60;;;14.00;74.00;;;;;;4928343;29;20071;-82
2023/02/11 09:23:47;;;;;;;9.15;5.10;;;14.10;73.70;;;;;;4925025;29;20047;-81
2023/02/11 09:26:16;;;;;;;7.30;3.42;;;14.10;73.40;;;;;;4914945;29;20126;-81
2023/02/11 09:28:43;;;;;;;10.20;4.50;;;14.30;74.00;;;;;;4915396;29;20573;-82
2023/02/11 09:31:11;;;;;;;8.20;4.43;;;14.40;73.30;;;;;;4922094;29;20036;-80
2023/02/11 09:33:38;;;;;;;9.85;5.50;;;14.50;73.20;;;;;;4923352;29;20725;-81
2023/02/11 09:36:05;;;;;;;9.07;4.65;;;14.60;73.10;;;;;;4921193;29;20083;-81
2023/02/11 09:38:31;;;;;;;6.63;5.43;;;14.70;72.90;;;;;;4921920;29;20118;-82
2023/02/11 09:40:57;;;;;;;8.45;5.32;;;14.80;72.70;;;;;;4921647;29;20063;-85
2023/02/11 09:43:35;;;;;;;6.82;4.40;;;15.00;72.70;;;;;;4924602;29;20358;-88
2023/02/11 09:46:01;;;;;;;8.93;5.32;;;15.00;72.30;;;;;;4925357;29;20502;-82
2023/02/11 09:48:38;;;;;;;12.15;6.47;;;15.20;72.80;;;;;;4920940;29;20449;-81
2023/02/11 09:51:09;;;;;;;12.10;5.85;;;15.20;71.80;;;;;;4919603;29;20111;-80
2023/02/11 09:53:41;;;;;;;9.88;6.03;;;15.30;71.70;;;;;;4920164;29;20500;-82
2023/02/11 09:56:13;;;;;;;12.48;6.22;;;15.30;71.50;;;;;;4920344;29;20563;-80
2023/02/11 09:58:41;;;;;;;10.88;6.95;;;15.20;71.20;;;;;;4922849;29;20042;-81
2023/02/11 10:01:34;;;;;;;10.32;7.32;;;15.20;71.10;;;;;;4922653;29;20115;-82
2023/02/11 10:04:13;;;;;;;9.82;6.97;;;15.20;71.00;;;;;;4923407;29;20291;-83
2023/02/11 10:06:44;;;;;;;11.20;6.65;;;15.10;70.80;;;;;;4917411;29;20047;-80
2023/02/11 10:09:16;;;;;;;11.90;8.02;;;15.10;70.80;;;;;;4920365;29;20044;-79
2023/02/11 10:11:50;;;;;;;9.50;6.80;;;15.10;70.80;;;;;;4922529;29;20528;-78
2023/02/11 10:14:22;;;;;;;10.32;6.90;;;15.00;70.60;;;;;;4919278;29;20917;-79
2023/02/11 10:17:15;;;;;;;12.67;7.70;;;15.10;70.70;;;;;;4922026;28;20072;-80
2023/02/11 10:20:16;;;;;;;11.35;8.30;;;15.10;70.70;;;;;;4901208;29;20816;-80
2023/02/11 10:22:54;;;;;;;11.02;7.78;;;15.10;70.50;;;;;;4911347;29;20036;-80
2023/02/11 10:25:36;;;;;;;17.52;8.45;;;15.10;70.40;;;;;;4919244;29;20114;-79
2023/02/11 10:28:16;;;;;;;13.63;8.48;;;15.20;70.30;;;;;;4922409;29;20404;-79
2023/02/11 10:30:51;;;;;;;11.75;7.82;;;15.20;70.20;;;;;;4916933;29;20056;-80
2023/02/11 10:33:17;;;;;;;12.35;8.18;;;15.20;70.10;;;;;;4914365;29;20055;-80
2023/02/11 10:35:44;;;;;;;14.15;7.35;;;15.20;70.00;;;;;;4919259;29;20043;-83
2023/02/11 10:38:10;;;;;;;9.70;7.63;;;15.20;69.90;;;;;;4924394;29;20048;-82
2023/02/11 10:40:36;;;;;;;7.72;5.15;;;15.30;70.00;;;;;;4922462;29;20126;-78
2023/02/11 10:43:10;;;;;;;9.43;5.78;;;15.30;70.10;;;;;;4918412;29;20551;-84
2023/02/11 10:45:50;;;;;;;8.20;5.45;;;15.40;70.40;;;;;;4926604;29;20089;-90
2023/02/11 10:48:34;;;;;;;11.70;6.78;;;15.50;70.20;;;;;;4916232;29;20388;-84
2023/02/11 10:51:17;;;;;;;8.77;5.30;;;15.70;70.20;;;;;;4920975;29;20464;-85
2023/02/11 10:53:45;;;;;;;7.88;6.03;;;15.70;69.90;;;;;;4906962;29;20055;-85
2023/02/11 10:56:20;;;;;;;9.90;6.00;;;15.80;69.90;;;;;;4919289;29;20106;-84
2023/02/11 10:59:18;;;;;;;9.88;5.90;;;15.80;69.80;;;;;;4919720;28;20409;-83
2023/02/11 11:01:53;;;;;;;9.77;6.38;;;15.80;69.60;;;;;;4910757;29;20071;-82
2023/02/11 11:04:42;;;;;;;10.02;5.25;;;15.70;69.40;;;;;;4918824;29;20107;-83
2023/02/11 11:07:21;;;;;;;10.40;6.65;;;15.70;69.30;;;;;;4917067;29;20031;-83
2023/02/11 11:09:47;;;;;;;6.97;5.72;;;15.70;69.20;;;;;;4899680;29;20040;-84
2023/02/11 11:12:43;;;;;;;10.70;5.38;;;15.70;69.30;;;;;;4920168;29;20246;-82
2023/02/11 11:15:10;;;;;;;8.38;5.70;;;15.70;69.10;;;;;;4921414;29;20193;-82
2023/02/11 11:17:37;;;;;;;9.88;5.60;;;15.60;68.90;;;;;;4918079;29;20067;-82
2023/02/11 11:20:21;;;;;;;9.10;5.78;;;15.60;68.80;;;;;;4915403;29;20475;-82
2023/02/11 11:22:52;;;;;;;8.88;5.72;;;15.60;68.70;;;;;;4915711;29;20122;-84
2023/02/11 11:25:25;;;;;;;10.10;6.38;;;15.60;68.70;;;;;;4920582;29;20051;-82
2023/02/11 11:27:55;;;;;;;7.75;5.68;;;15.60;68.70;;;;;;4914933;29;20123;-86
2023/02/11 11:30:25;;;;;;;7.63;6.53;;;15.50;68.50;;;;;;4920974;29;20275;-86
2023/02/11 11:32:52;;;;;;;9.90;7.47;;;15.50;68.50;;;;;;4920998;29;20604;-86
2023/02/11 11:35:25;;;;;;;10.98;7.55;;;15.60;68.70;;;;;;4923737;29;20056;-83
2023/02/11 11:37:58;;;;;;;7.35;5.15;;;15.50;68.30;;;;;;4917913;29;20054;-83
2023/02/11 11:40:28;;;;;;;5.70;4.43;;;15.50;68.60;;;;;;4921751;28;20300;-83
2023/02/11 11:43:18;;;;;;;5.82;4.80;;;15.50;69.40;;;;;;4921718;29;20031;-85
2023/02/11 11:45:58;;;;;;;7.07;4.97;;;15.60;68.90;;;;;;4923393;28;20039;-82
2023/02/11 11:48:36;;;;;;;8.02;5.00;;;15.80;68.90;;;;;;4918170;29;20032;-81
2023/02/11 11:51:10;;;;;;;7.20;5.10;;;15.80;68.70;;;;;;4919762;29;20036;-84
2023/02/11 11:53:54;;;;;;;8.00;5.10;;;15.90;68.60;;;;;;4924487;29;20074;-84
2023/02/11 11:56:30;;;;;;;7.55;5.07;;;15.90;68.40;;;;;;4926870;29;20035;-84
2023/02/11 11:59:01;;;;;;;8.20;4.85;;;15.90;68.40;;;;;;4920660;29;20164;-81
2023/02/11 12:01:36;;;;;;;6.07;4.57;;;15.90;68.40;;;;;;4923176;29;20142;-81
2023/02/11 12:04:20;;;;;;;8.57;4.30;;;15.80;68.20;;;;;;4925648;29;20050;-83
2023/02/11 12:07:21;;;;;;;5.68;4.93;;;15.90;68.50;;;;;;4915710;29;20461;-82
2023/02/11 12:10:25;;;;;;;8.35;4.80;;;15.90;68.30;;;;;;4915623;29;20500;-81
2023/02/11 12:13:16;;;;;;;13.38;6.22;;;15.90;68.40;;;;;;4927839;29;20051;-83
2023/02/11 12:15:42;;;;;;;8.75;5.35;;;15.90;68.30;;;;;;4927374;29;20055;-84
2023/02/11 12:18:15;;;;;;;9.00;4.60;;;15.80;68.20;;;;;;4910863;29;20452;-83
2023/02/11 12:21:16;;;;;;;8.13;4.35;;;15.80;68.20;;;;;;4927784;29;20036;-89
2023/02/11 12:24:22;;;;;;;10.25;4.93;;;15.70;67.60;;;;;;4936654;29;20108;-87
2023/02/11 12:27:00;;;;;;;8.00;4.43;;;15.60;67.40;;;;;;4928634;29;20187;-89
2023/02/11 12:29:38;;;;;;;13.20;5.65;;;15.50;67.50;;;;;;4920336;29;20055;-90
2023/02/11 12:32:13;;;;;;;8.40;5.75;;;15.40;67.20;;;;;;4926299;29;20043;-84
2023/02/11 12:35:14;;;;;;;10.23;5.40;;;15.40;67.20;;;;;;4924885;29;20028;-80
2023/02/11 12:38:05;;;;;;;11.07;6.70;;;15.30;66.90;;;;;;4919575;29;20051;-83
2023/02/11 12:40:57;;;;;;;8.23;6.18;;;15.30;66.90;;;;;;4923363;29;20036;-83
2023/02/11 12:43:45;;;;;;;14.55;7.60;;;15.30;66.90;;;;;;4904665;29;21737;-85
2023/02/11 12:46:39;;;;;;;9.70;6.18;;;15.30;66.90;;;;;;4920618;29;20040;-84
2023/02/11 12:49:23;;;;;;;;;;;15.20;66.50;;;;;;4912394;29;20043;-90
2023/02/11 12:52:07;;;;;;;8.65;5.95;;;15.30;66.90;;;;;;4916266;29;20402;-87
2023/02/11 12:54:47;;;;;;;12.55;6.32;;;15.20;66.70;;;;;;4925882;29;20400;-86
2023/02/11 12:57:26;;;;;;;9.52;6.13;;;15.30;66.60;;;;;;4924620;29;20035;-87
2023/02/11 13:00:06;;;;;;;11.65;6.50;;;15.30;66.50;;;;;;4926766;29;20044;-86
2023/02/11 13:02:35;;;;;;;8.00;5.20;;;15.30;66.40;;;;;;4923915;29;20388;-86
2023/02/11 13:05:26;;;;;;;10.13;5.38;;;15.30;66.30;;;;;;4926188;29;20031;-79
2023/02/11 13:08:01;;;;;;;8.20;5.55;;;15.30;66.20;;;;;;4916649;29;20032;-79
2023/02/11 13:10:36;;;;;;;10.98;6.20;;;15.30;66.10;;;;;;4924285;29;20675;-79